sensor_id;sensor_type;location;lat;lon;timestamp;temperature;humidity
67722;SHT31;58309;45.292;11.820;2022-10-16T00:00:38;16.91;88.61
67722;SHT31;58309;45.292;11.820;2022-10-16T00:03:05;16.89;88.57
67722;SHT31;58309;45.292;11.820;2022-10-16T00:05:31;16.88;88.42
67722;SHT31;58309;45.292;11.820;2022-10-16T00:07:56;16.91;88.83
67722;SHT31;58309;45.292;11.820;2022-10-16T00:10:22;16.92;88.47
67722;SHT31;58309;45.292;11.820;2022-10-16T00:12:48;16.91;88.67
67722;SHT31;58309;45.292;11.820;2022-10-16T00:15:14;16.92;88.59
67722;SHT31;58309;45.292;11.820;2022-10-16T00:17:39;16.92;88.60
67722;SHT31;58309;45.292;11.820;2022-10-16T00:20:05;16.93;88.49
67722;SHT31;58309;45.292;11.820;2022-10-16T00:22:31;16.91;88.85
67722;SHT31;58309;45.292;11.820;2022-10-16T00:24:56;16.92;88.58
67722;SHT31;58309;45.292;11.820;2022-10-16T00:27:22;16.89;88.67
67722;SHT31;58309;45.292;11.820;2022-10-16T00:29:51;16.89;88.86
67722;SHT31;58309;45.292;11.820;2022-10-16T00:32:18;16.88;88.81
67722;SHT31;58309;45.292;11.820;2022-10-16T00:34:44;16.84;88.89
67722;SHT31;58309;45.292;11.820;2022-10-16T00:37:09;16.82;88.95
67722;SHT31;58309;45.292;11.820;2022-10-16T00:39:35;16.81;89.05
67722;SHT31;58309;45.292;11.820;2022-10-16T00:42:00;16.79;88.79
67722;SHT31;58309;45.292;11.820;2022-10-16T00:44:50;16.82;88.84
67722;SHT31;58309;45.292;11.820;2022-10-16T00:47:24;16.82;88.82
67722;SHT31;58309;45.292;11.820;2022-10-16T00:49:54;16.85;88.94
67722;SHT31;58309;45.292;11.820;2022-10-16T00:52:21;16.85;88.60
67722;SHT31;58309;45.292;11.820;2022-10-16T00:54:47;16.86;88.75
67722;SHT31;58309;45.292;11.820;2022-10-16T00:57:13;16.86;88.56
67722;SHT31;58309;45.292;11.820;2022-10-16T00:59:40;16.89;88.74
67722;SHT31;58309;45.292;11.820;2022-10-16T01:02:08;16.91;88.49
67722;SHT31;58309;45.292;11.820;2022-10-16T01:04:37;16.89;88.57
67722;SHT31;58309;45.292;11.820;2022-10-16T01:12:50;16.85;88.54
67722;SHT31;58309;45.292;11.820;2022-10-16T01:15:28;16.86;88.48
67722;SHT31;58309;45.292;11.820;2022-10-16T01:18:10;16.86;88.55
67722;SHT31;58309;45.292;11.820;2022-10-16T01:20:44;16.88;88.71
67722;SHT31;58309;45.292;11.820;2022-10-16T01:28:29;16.89;88.60
67722;SHT31;58309;45.292;11.820;2022-10-16T01:30:59;16.89;88.75
67722;SHT31;58309;45.292;11.820;2022-10-16T01:33:33;16.86;88.81
67722;SHT31;58309;45.292;11.820;2022-10-16T01:36:08;16.85;88.98
67722;SHT31;58309;45.292;11.820;2022-10-16T01:38:39;16.85;88.91
67722;SHT31;58309;45.292;11.820;2022-10-16T01:41:15;16.85;88.75
67722;SHT31;58309;45.292;11.820;2022-10-16T01:43:49;16.84;88.90
67722;SHT31;58309;45.292;11.820;2022-10-16T01:46:20;16.82;89.08
67722;SHT31;58309;45.292;11.820;2022-10-16T01:48:48;16.82;89.28
67722;SHT31;58309;45.292;11.820;2022-10-16T01:51:14;16.79;89.30
67722;SHT31;58309;45.292;11.820;2022-10-16T01:53:45;16.79;89.52
67722;SHT31;58309;45.292;11.820;2022-10-16T01:56:13;16.79;89.30
67722;SHT31;58309;45.292;11.820;2022-10-16T01:58:45;16.76;89.43
67722;SHT31;58309;45.292;11.820;2022-10-16T02:01:14;16.75;89.52
67722;SHT31;58309;45.292;11.820;2022-10-16T02:03:42;16.75;89.56
67722;SHT31;58309;45.292;11.820;2022-10-16T02:06:08;16.75;89.71
67722;SHT31;58309;45.292;11.820;2022-10-16T02:08:35;16.69;89.89
67722;SHT31;58309;45.292;11.820;2022-10-16T02:11:01;16.71;89.97
67722;SHT31;58309;45.292;11.820;2022-10-16T02:15:55;16.71;89.97
67722;SHT31;58309;45.292;11.820;2022-10-16T02:18:21;16.74;89.88
67722;SHT31;58309;45.292;11.820;2022-10-16T02:20:59;16.71;89.94
67722;SHT31;58309;45.292;11.820;2022-10-16T02:23:38;16.71;89.80
67722;SHT31;58309;45.292;11.820;2022-10-16T02:26:09;16.74;89.78
67722;SHT31;58309;45.292;11.820;2022-10-16T02:28:42;16.72;89.68
67722;SHT31;58309;45.292;11.820;2022-10-16T02:31:11;16.72;89.67
67722;SHT31;58309;45.292;11.820;2022-10-16T02:33:40;16.72;89.75
67722;SHT31;58309;45.292;11.820;2022-10-16T02:36:07;16.69;89.88
67722;SHT31;58309;45.292;11.820;2022-10-16T02:38:34;16.69;89.95
67722;SHT31;58309;45.292;11.820;2022-10-16T02:40:59;16.69;90.10
67722;SHT31;58309;45.292;11.820;2022-10-16T02:43:25;16.69;90.02
67722;SHT31;58309;45.292;11.820;2022-10-16T02:45:51;16.67;90.14
67722;SHT31;58309;45.292;11.820;2022-10-16T02:48:17;16.64;90.24
67722;SHT31;58309;45.292;11.820;2022-10-16T02:50:42;16.62;90.34
67722;SHT31;58309;45.292;11.820;2022-10-16T02:53:08;16.58;90.31
67722;SHT31;58309;45.292;11.820;2022-10-16T02:55:33;16.60;90.51
67722;SHT31;58309;45.292;11.820;2022-10-16T02:57:59;16.57;90.66
67722;SHT31;58309;45.292;11.820;2022-10-16T03:00:24;16.55;90.70
67722;SHT31;58309;45.292;11.820;2022-10-16T03:02:50;16.55;90.86
67722;SHT31;58309;45.292;11.820;2022-10-16T03:05:15;16.54;90.93
67722;SHT31;58309;45.292;11.820;2022-10-16T03:07:41;16.51;91.03
67722;SHT31;58309;45.292;11.820;2022-10-16T03:10:07;16.50;91.03
67722;SHT31;58309;45.292;11.820;2022-10-16T03:12:32;16.50;91.23
67722;SHT31;58309;45.292;11.820;2022-10-16T03:14:58;16.50;91.24
67722;SHT31;58309;45.292;11.820;2022-10-16T03:17:24;16.48;91.42
67722;SHT31;58309;45.292;11.820;2022-10-16T03:19:50;16.50;91.40
67722;SHT31;58309;45.292;11.820;2022-10-16T03:22:16;16.48;91.53
67722;SHT31;58309;45.292;11.820;2022-10-16T03:24:41;16.45;91.62
67722;SHT31;58309;45.292;11.820;2022-10-16T03:27:07;16.43;91.60
67722;SHT31;58309;45.292;11.820;2022-10-16T03:29:33;16.40;91.83
67722;SHT31;58309;45.292;11.820;2022-10-16T03:31:59;16.35;91.95
67722;SHT31;58309;45.292;11.820;2022-10-16T03:34:25;16.31;91.90
67722;SHT31;58309;45.292;11.820;2022-10-16T03:36:51;16.25;92.06
67722;SHT31;58309;45.292;11.820;2022-10-16T03:39:16;16.20;92.34
67722;SHT31;58309;45.292;11.820;2022-10-16T03:41:42;16.16;92.48
67722;SHT31;58309;45.292;11.820;2022-10-16T03:44:07;16.12;92.56
67722;SHT31;58309;45.292;11.820;2022-10-16T03:46:33;16.07;92.92
67722;SHT31;58309;45.292;11.820;2022-10-16T03:48:58;16.06;92.92
67722;SHT31;58309;45.292;11.820;2022-10-16T03:51:24;15.97;93.02
67722;SHT31;58309;45.292;11.820;2022-10-16T03:53:49;15.93;93.17
67722;SHT31;58309;45.292;11.820;2022-10-16T03:56:15;15.86;93.35
67722;SHT31;58309;45.292;11.820;2022-10-16T03:58:40;15.86;93.51
67722;SHT31;58309;45.292;11.820;2022-10-16T04:01:06;15.82;93.73
67722;SHT31;58309;45.292;11.820;2022-10-16T04:03:32;15.82;93.99
67722;SHT31;58309;45.292;11.820;2022-10-16T04:05:57;15.81;93.94
67722;SHT31;58309;45.292;11.820;2022-10-16T04:08:22;15.78;93.96
67722;SHT31;58309;45.292;11.820;2022-10-16T04:10:48;15.78;94.07
67722;SHT31;58309;45.292;11.820;2022-10-16T04:13:14;15.78;94.09
67722;SHT31;58309;45.292;11.820;2022-10-16T04:15:40;15.76;94.16
67722;SHT31;58309;45.292;11.820;2022-10-16T04:18:06;15.73;94.41
67722;SHT31;58309;45.292;11.820;2022-10-16T04:20:32;15.72;94.41
67722;SHT31;58309;45.292;11.820;2022-10-16T04:22:57;15.70;94.34
67722;SHT31;58309;45.292;11.820;2022-10-16T04:25:23;15.72;94.51
67722;SHT31;58309;45.292;11.820;2022-10-16T04:27:48;15.70;94.52
67722;SHT31;58309;45.292;11.820;2022-10-16T04:30:14;15.73;94.57
67722;SHT31;58309;45.292;11.820;2022-10-16T04:32:40;15.69;94.61
67722;SHT31;58309;45.292;11.820;2022-10-16T04:35:06;15.63;94.63
67722;SHT31;58309;45.292;11.820;2022-10-16T04:37:32;15.65;94.62
67722;SHT31;58309;45.292;11.820;2022-10-16T04:39:57;15.59;94.66
67722;SHT31;58309;45.292;11.820;2022-10-16T04:42:23;15.56;94.92
67722;SHT31;58309;45.292;11.820;2022-10-16T04:44:48;15.58;94.87
67722;SHT31;58309;45.292;11.820;2022-10-16T04:47:14;15.56;94.88
67722;SHT31;58309;45.292;11.820;2022-10-16T04:49:39;15.52;94.79
67722;SHT31;58309;45.292;11.820;2022-10-16T04:52:05;15.53;94.79
67722;SHT31;58309;45.292;11.820;2022-10-16T04:54:31;15.49;95.05
67722;SHT31;58309;45.292;11.820;2022-10-16T04:56:56;15.49;95.02
67722;SHT31;58309;45.292;11.820;2022-10-16T04:59:22;15.42;95.15
67722;SHT31;58309;45.292;11.820;2022-10-16T05:01:48;15.36;95.23
67722;SHT31;58309;45.292;11.820;2022-10-16T05:04:14;15.34;95.33
67722;SHT31;58309;45.292;11.820;2022-10-16T05:06:40;15.30;95.38
67722;SHT31;58309;45.292;11.820;2022-10-16T05:09:06;15.20;95.33
67722;SHT31;58309;45.292;11.820;2022-10-16T05:11:32;15.15;95.76
67722;SHT31;58309;45.292;11.820;2022-10-16T05:13:58;15.07;95.89
67722;SHT31;58309;45.292;11.820;2022-10-16T05:16:23;15.00;96.34
67722;SHT31;58309;45.292;11.820;2022-10-16T05:18:48;15.01;96.46
67722;SHT31;58309;45.292;11.820;2022-10-16T05:21:14;15.01;96.52
67722;SHT31;58309;45.292;11.820;2022-10-16T05:23:40;15.03;96.72
67722;SHT31;58309;45.292;11.820;2022-10-16T05:26:05;15.08;96.77
67722;SHT31;58309;45.292;11.820;2022-10-16T05:28:31;15.11;96.68
67722;SHT31;58309;45.292;11.820;2022-10-16T05:30:57;15.20;96.61
67722;SHT31;58309;45.292;11.820;2022-10-16T05:33:25;15.22;96.54
67722;SHT31;58309;45.292;11.820;2022-10-16T05:35:51;15.28;96.51
67722;SHT31;58309;45.292;11.820;2022-10-16T05:38:17;15.35;96.35
67722;SHT31;58309;45.292;11.820;2022-10-16T05:40:43;15.38;96.38
67722;SHT31;58309;45.292;11.820;2022-10-16T05:43:08;15.45;96.33
67722;SHT31;58309;45.292;11.820;2022-10-16T05:45:34;15.52;96.30
67722;SHT31;58309;45.292;11.820;2022-10-16T05:48:00;15.62;96.04
67722;SHT31;58309;45.292;11.820;2022-10-16T05:50:26;15.67;95.80
67722;SHT31;58309;45.292;11.820;2022-10-16T05:52:52;15.73;95.61
67722;SHT31;58309;45.292;11.820;2022-10-16T05:55:18;15.78;95.52
67722;SHT31;58309;45.292;11.820;2022-10-16T05:57:43;15.81;95.52
67722;SHT31;58309;45.292;11.820;2022-10-16T06:00:09;15.90;95.24
67722;SHT31;58309;45.292;11.820;2022-10-16T06:02:35;15.93;95.13
67722;SHT31;58309;45.292;11.820;2022-10-16T06:05:00;16.00;95.05
67722;SHT31;58309;45.292;11.820;2022-10-16T06:07:26;16.09;94.96
67722;SHT31;58309;45.292;11.820;2022-10-16T06:09:52;16.12;94.60
67722;SHT31;58309;45.292;11.820;2022-10-16T06:12:18;16.20;94.46
67722;SHT31;58309;45.292;11.820;2022-10-16T06:14:45;16.24;94.49
67722;SHT31;58309;45.292;11.820;2022-10-16T06:17:13;16.27;94.16
67722;SHT31;58309;45.292;11.820;2022-10-16T06:19:38;16.33;94.06
67722;SHT31;58309;45.292;11.820;2022-10-16T06:22:04;16.40;93.85
67722;SHT31;58309;45.292;11.820;2022-10-16T06:24:29;16.44;93.66
67722;SHT31;58309;45.292;11.820;2022-10-16T06:26:56;16.47;93.64
67722;SHT31;58309;45.292;11.820;2022-10-16T06:29:21;16.48;93.54
67722;SHT31;58309;45.292;11.820;2022-10-16T06:31:47;16.51;93.26
67722;SHT31;58309;45.292;11.820;2022-10-16T06:34:12;16.53;93.23
67722;SHT31;58309;45.292;11.820;2022-10-16T06:36:38;16.58;93.40
67722;SHT31;58309;45.292;11.820;2022-10-16T06:39:05;16.61;92.80
67722;SHT31;58309;45.292;11.820;2022-10-16T06:41:33;16.67;92.75
67722;SHT31;58309;45.292;11.820;2022-10-16T06:43:59;16.67;92.53
67722;SHT31;58309;45.292;11.820;2022-10-16T06:46:25;16.78;92.59
67722;SHT31;58309;45.292;11.820;2022-10-16T06:48:52;16.76;91.94
67722;SHT31;58309;45.292;11.820;2022-10-16T06:51:20;16.82;91.99
67722;SHT31;58309;45.292;11.820;2022-10-16T06:53:53;16.85;91.64
67722;SHT31;58309;45.292;11.820;2022-10-16T06:56:22;16.82;91.51
67722;SHT31;58309;45.292;11.820;2022-10-16T06:58:49;16.89;91.68
67722;SHT31;58309;45.292;11.820;2022-10-16T07:01:15;16.99;91.49
67722;SHT31;58309;45.292;11.820;2022-10-16T07:03:44;17.01;91.18
67722;SHT31;58309;45.292;11.820;2022-10-16T07:06:11;16.99;91.40
67722;SHT31;58309;45.292;11.820;2022-10-16T07:08:39;17.08;91.34
67722;SHT31;58309;45.292;11.820;2022-10-16T07:11:07;17.05;90.98
67722;SHT31;58309;45.292;11.820;2022-10-16T07:13:37;17.15;90.97
67722;SHT31;58309;45.292;11.820;2022-10-16T07:16:11;17.15;90.59
67722;SHT31;58309;45.292;11.820;2022-10-16T07:18:36;17.19;90.28
67722;SHT31;58309;45.292;11.820;2022-10-16T07:21:11;17.20;90.46
67722;SHT31;58309;45.292;11.820;2022-10-16T07:23:37;17.23;90.33
67722;SHT31;58309;45.292;11.820;2022-10-16T07:26:04;17.29;89.96
67722;SHT31;58309;45.292;11.820;2022-10-16T07:28:30;17.40;89.71
67722;SHT31;58309;45.292;11.820;2022-10-16T07:31:04;17.49;89.14
67722;SHT31;58309;45.292;11.820;2022-10-16T07:33:30;17.62;88.94
67722;SHT31;58309;45.292;11.820;2022-10-16T07:35:56;17.62;88.57
67722;SHT31;58309;45.292;11.820;2022-10-16T07:38:23;17.67;88.38
67722;SHT31;58309;45.292;11.820;2022-10-16T07:40:56;17.73;87.86
67722;SHT31;58309;45.292;11.820;2022-10-16T07:43:21;17.83;88.01
67722;SHT31;58309;45.292;11.820;2022-10-16T07:45:48;17.94;87.12
67722;SHT31;58309;45.292;11.820;2022-10-16T07:48:14;17.95;86.77
67722;SHT31;58309;45.292;11.820;2022-10-16T07:50:40;18.06;86.89
67722;SHT31;58309;45.292;11.820;2022-10-16T07:53:06;18.12;86.69
67722;SHT31;58309;45.292;11.820;2022-10-16T07:55:32;18.02;86.62
67722;SHT31;58309;45.292;11.820;2022-10-16T07:57:58;18.00;86.55
67722;SHT31;58309;45.292;11.820;2022-10-16T08:00:23;17.91;86.91
67722;SHT31;58309;45.292;11.820;2022-10-16T08:02:49;17.94;86.95
67722;SHT31;58309;45.292;11.820;2022-10-16T08:05:14;18.04;86.93
67722;SHT31;58309;45.292;11.820;2022-10-16T08:07:40;18.31;85.95
67722;SHT31;58309;45.292;11.820;2022-10-16T08:10:05;18.52;85.19
67722;SHT31;58309;45.292;11.820;2022-10-16T08:12:32;18.66;84.64
67722;SHT31;58309;45.292;11.820;2022-10-16T08:14:58;18.89;84.27
67722;SHT31;58309;45.292;11.820;2022-10-16T08:17:23;18.87;83.73
67722;SHT31;58309;45.292;11.820;2022-10-16T08:19:49;19.08;82.94
67722;SHT31;58309;45.292;11.820;2022-10-16T08:22:14;19.13;82.98
67722;SHT31;58309;45.292;11.820;2022-10-16T08:24:40;19.39;82.28
67722;SHT31;58309;45.292;11.820;2022-10-16T08:27:06;19.87;80.90
67722;SHT31;58309;45.292;11.820;2022-10-16T08:29:32;20.30;79.15
67722;SHT31;58309;45.292;11.820;2022-10-16T08:31:58;20.54;77.81
67722;SHT31;58309;45.292;11.820;2022-10-16T08:34:23;21.01;76.42
67722;SHT31;58309;45.292;11.820;2022-10-16T08:36:49;21.24;75.66
67722;SHT31;58309;45.292;11.820;2022-10-16T08:39:15;21.39;74.86
67722;SHT31;58309;45.292;11.820;2022-10-16T08:42:08;21.63;74.36
67722;SHT31;58309;45.292;11.820;2022-10-16T08:47:56;21.89;72.92
67722;SHT31;58309;45.292;11.820;2022-10-16T08:50:23;21.94;73.86
67722;SHT31;58309;45.292;11.820;2022-10-16T08:52:49;21.84;74.18
67722;SHT31;58309;45.292;11.820;2022-10-16T08:57:59;22.35;71.77
67722;SHT31;58309;45.292;11.820;2022-10-16T09:00:26;22.28;71.03
67722;SHT31;58309;45.292;11.820;2022-10-16T09:08:28;23.65;68.33
67722;SHT31;58309;45.292;11.820;2022-10-16T09:16:52;23.92;66.81
67722;SHT31;58309;45.292;11.820;2022-10-16T09:19:20;24.40;65.61
67722;SHT31;58309;45.292;11.820;2022-10-16T09:21:48;24.42;66.14
67722;SHT31;58309;45.292;11.820;2022-10-16T09:24:22;24.22;66.11
67722;SHT31;58309;45.292;11.820;2022-10-16T09:26:49;24.57;65.67
67722;SHT31;58309;45.292;11.820;2022-10-16T09:29:20;25.13;64.60
67722;SHT31;58309;45.292;11.820;2022-10-16T09:31:47;24.59;65.00
67722;SHT31;58309;45.292;11.820;2022-10-16T09:34:34;25.54;64.43
67722;SHT31;58309;45.292;11.820;2022-10-16T09:37:04;25.51;63.35
67722;SHT31;58309;45.292;11.820;2022-10-16T09:39:30;25.49;63.45
67722;SHT31;58309;45.292;11.820;2022-10-16T09:41:56;25.25;63.31
67722;SHT31;58309;45.292;11.820;2022-10-16T09:44:28;25.27;63.64
67722;SHT31;58309;45.292;11.820;2022-10-16T09:47:04;25.25;64.64
67722;SHT31;58309;45.292;11.820;2022-10-16T09:49:30;25.42;63.42
67722;SHT31;58309;45.292;11.820;2022-10-16T09:52:12;26.81;61.63
67722;SHT31;58309;45.292;11.820;2022-10-16T09:54:52;26.19;61.02
67722;SHT31;58309;45.292;11.820;2022-10-16T09:57:19;26.75;60.11
67722;SHT31;58309;45.292;11.820;2022-10-16T09:59:48;26.53;60.26
67722;SHT31;58309;45.292;11.820;2022-10-16T10:02:15;26.32;60.63
67722;SHT31;58309;45.292;11.820;2022-10-16T10:04:52;26.54;61.39
67722;SHT31;58309;45.292;11.820;2022-10-16T10:07:32;25.90;63.87
67722;SHT31;58309;45.292;11.820;2022-10-16T10:10:03;25.34;64.79
67722;SHT31;58309;45.292;11.820;2022-10-16T10:12:31;24.95;65.94
67722;SHT31;58309;45.292;11.820;2022-10-16T10:15:14;25.03;66.19
67722;SHT31;58309;45.292;11.820;2022-10-16T10:17:50;24.98;65.65
67722;SHT31;58309;45.292;11.820;2022-10-16T10:20:31;25.00;64.57
67722;SHT31;58309;45.292;11.820;2022-10-16T10:23:00;25.17;64.22
67722;SHT31;58309;45.292;11.820;2022-10-16T10:31:04;24.43;68.14
67722;SHT31;58309;45.292;11.820;2022-10-16T10:33:37;25.83;65.15
67722;SHT31;58309;45.292;11.820;2022-10-16T11:04:05;26.48;60.87
67722;SHT31;58309;45.292;11.820;2022-10-16T11:06:43;25.57;63.52
67722;SHT31;58309;45.292;11.820;2022-10-16T11:12:22;24.59;64.89
67722;SHT31;58309;45.292;11.820;2022-10-16T11:15:23;24.51;66.07
67722;SHT31;58309;45.292;11.820;2022-10-16T11:17:57;24.39;66.69
67722;SHT31;58309;45.292;11.820;2022-10-16T11:20:45;24.26;68.18
67722;SHT31;58309;45.292;11.820;2022-10-16T11:23:25;24.22;67.77
67722;SHT31;58309;45.292;11.820;2022-10-16T11:25:52;24.87;66.47
67722;SHT31;58309;45.292;11.820;2022-10-16T11:28:34;25.86;63.20
67722;SHT31;58309;45.292;11.820;2022-10-16T11:36:53;27.04;60.17
67722;SHT31;58309;45.292;11.820;2022-10-16T11:39:29;26.41;60.57
67722;SHT31;58309;45.292;11.820;2022-10-16T11:44:36;25.68;62.31
67722;SHT31;58309;45.292;11.820;2022-10-16T11:47:41;25.44;63.46
67722;SHT31;58309;45.292;11.820;2022-10-16T11:53:16;24.76;64.53
67722;SHT31;58309;45.292;11.820;2022-10-16T11:55:45;24.45;66.51
67722;SHT31;58309;45.292;11.820;2022-10-16T12:01:10;24.00;66.21
67722;SHT31;58309;45.292;11.820;2022-10-16T12:03:44;23.89;67.56
67722;SHT31;58309;45.292;11.820;2022-10-16T12:06:37;24.09;67.79
67722;SHT31;58309;45.292;11.820;2022-10-16T12:09:05;24.15;67.12
67722;SHT31;58309;45.292;11.820;2022-10-16T12:11:36;24.26;65.98
67722;SHT31;58309;45.292;11.820;2022-10-16T12:14:18;24.08;66.90
67722;SHT31;58309;45.292;11.820;2022-10-16T12:16:58;23.81;68.37
67722;SHT31;58309;45.292;11.820;2022-10-16T12:19:27;23.77;68.64
67722;SHT31;58309;45.292;11.820;2022-10-16T12:21:59;23.68;68.67
67722;SHT31;58309;45.292;11.820;2022-10-16T12:24:39;23.73;68.66
67722;SHT31;58309;45.292;11.820;2022-10-16T12:27:22;23.63;69.19
67722;SHT31;58309;45.292;11.820;2022-10-16T12:29:55;23.61;68.96
67722;SHT31;58309;45.292;11.820;2022-10-16T12:32:30;23.40;69.30
67722;SHT31;58309;45.292;11.820;2022-10-16T12:34:57;23.44;69.85
67722;SHT31;58309;45.292;11.820;2022-10-16T12:37:28;23.37;69.20
67722;SHT31;58309;45.292;11.820;2022-10-16T12:39:56;23.33;69.28
67722;SHT31;58309;45.292;11.820;2022-10-16T12:42:32;23.31;70.07
67722;SHT31;58309;45.292;11.820;2022-10-16T12:44:59;23.12;69.73
67722;SHT31;58309;45.292;11.820;2022-10-16T12:49:57;23.16;71.46
67722;SHT31;58309;45.292;11.820;2022-10-16T12:52:37;23.16;70.38
67722;SHT31;58309;45.292;11.820;2022-10-16T12:55:05;23.13;70.46
67722;SHT31;58309;45.292;11.820;2022-10-16T13:01:02;23.00;71.27
67722;SHT31;58309;45.292;11.820;2022-10-16T13:20:12;23.07;72.79
67722;SHT31;58309;45.292;11.820;2022-10-16T13:22:49;23.39;72.29
67722;SHT31;58309;45.292;11.820;2022-10-16T13:27:57;23.60;72.38
67722;SHT31;58309;45.292;11.820;2022-10-16T13:30:26;23.75;70.56
67722;SHT31;58309;45.292;11.820;2022-10-16T13:35:50;23.81;70.39
67722;SHT31;58309;45.292;11.820;2022-10-16T13:38:29;23.74;70.90
67722;SHT31;58309;45.292;11.820;2022-10-16T13:41:12;23.73;70.50
67722;SHT31;58309;45.292;11.820;2022-10-16T13:43:50;23.71;71.53
67722;SHT31;58309;45.292;11.820;2022-10-16T13:46:21;23.57;71.91
67722;SHT31;58309;45.292;11.820;2022-10-16T13:49:02;23.51;73.36
67722;SHT31;58309;45.292;11.820;2022-10-16T13:51:29;23.51;72.81
67722;SHT31;58309;45.292;11.820;2022-10-16T13:53:56;23.55;72.37
67722;SHT31;58309;45.292;11.820;2022-10-16T13:56:25;23.68;72.16
67722;SHT31;58309;45.292;11.820;2022-10-16T13:59:00;23.79;71.81
67722;SHT31;58309;45.292;11.820;2022-10-16T14:01:48;23.84;71.37
67722;SHT31;58309;45.292;11.820;2022-10-16T14:04:14;23.84;71.88
67722;SHT31;58309;45.292;11.820;2022-10-16T14:06:42;23.84;72.27
67722;SHT31;58309;45.292;11.820;2022-10-16T14:11:50;23.64;72.19
67722;SHT31;58309;45.292;11.820;2022-10-16T14:14:18;23.55;72.53
67722;SHT31;58309;45.292;11.820;2022-10-16T14:16:46;23.46;72.94
67722;SHT31;58309;45.292;11.820;2022-10-16T14:19:22;23.23;73.85
67722;SHT31;58309;45.292;11.820;2022-10-16T14:21:51;23.20;74.54
67722;SHT31;58309;45.292;11.820;2022-10-16T14:24:33;23.10;74.81
67722;SHT31;58309;45.292;11.820;2022-10-16T14:27:00;22.96;74.43
67722;SHT31;58309;45.292;11.820;2022-10-16T14:29:28;22.82;74.91
67722;SHT31;58309;45.292;11.820;2022-10-16T14:32:04;22.81;74.97
67722;SHT31;58309;45.292;11.820;2022-10-16T14:34:53;22.61;75.06
67722;SHT31;58309;45.292;11.820;2022-10-16T14:37:27;22.49;76.07
67722;SHT31;58309;45.292;11.820;2022-10-16T14:39:54;22.38;76.42
67722;SHT31;58309;45.292;11.820;2022-10-16T14:42:21;22.30;76.93
67722;SHT31;58309;45.292;11.820;2022-10-16T14:44:50;22.18;77.38
67722;SHT31;58309;45.292;11.820;2022-10-16T14:47:19;22.08;78.17
67722;SHT31;58309;45.292;11.820;2022-10-16T14:49:50;21.98;78.34
67722;SHT31;58309;45.292;11.820;2022-10-16T14:52:16;21.90;78.31
67722;SHT31;58309;45.292;11.820;2022-10-16T14:54:42;21.77;78.84
67722;SHT31;58309;45.292;11.820;2022-10-16T14:57:24;21.70;78.94
67722;SHT31;58309;45.292;11.820;2022-10-16T14:59:53;21.56;79.42
67722;SHT31;58309;45.292;11.820;2022-10-16T15:02:34;21.43;79.91
67722;SHT31;58309;45.292;11.820;2022-10-16T15:05:18;21.35;80.15
67722;SHT31;58309;45.292;11.820;2022-10-16T15:07:44;21.28;80.52
67722;SHT31;58309;45.292;11.820;2022-10-16T15:10:11;21.25;80.73
67722;SHT31;58309;45.292;11.820;2022-10-16T15:12:37;21.22;81.11
67722;SHT31;58309;45.292;11.820;2022-10-16T15:15:21;21.12;81.00
67722;SHT31;58309;45.292;11.820;2022-10-16T15:17:47;21.04;81.48
67722;SHT31;58309;45.292;11.820;2022-10-16T15:20:13;20.94;82.09
67722;SHT31;58309;45.292;11.820;2022-10-16T15:22:38;20.88;82.43
67722;SHT31;58309;45.292;11.820;2022-10-16T15:27:54;20.74;83.08
67722;SHT31;58309;45.292;11.820;2022-10-16T15:30:20;20.68;83.31
67722;SHT31;58309;45.292;11.820;2022-10-16T15:32:45;20.63;83.85
67722;SHT31;58309;45.292;11.820;2022-10-16T15:35:11;20.55;83.97
67722;SHT31;58309;45.292;11.820;2022-10-16T15:37:36;20.50;84.62
67722;SHT31;58309;45.292;11.820;2022-10-16T15:40:02;20.41;84.60
67722;SHT31;58309;45.292;11.820;2022-10-16T15:42:28;20.36;84.95
67722;SHT31;58309;45.292;11.820;2022-10-16T15:44:53;20.27;84.97
67722;SHT31;58309;45.292;11.820;2022-10-16T15:47:21;20.20;85.52
67722;SHT31;58309;45.292;11.820;2022-10-16T15:49:47;20.10;85.54
67722;SHT31;58309;45.292;11.820;2022-10-16T15:52:12;20.05;85.96
67722;SHT31;58309;45.292;11.820;2022-10-16T15:54:38;19.96;86.16
67722;SHT31;58309;45.292;11.820;2022-10-16T15:57:05;19.92;86.69
67722;SHT31;58309;45.292;11.820;2022-10-16T15:59:30;19.83;87.21
67722;SHT31;58309;45.292;11.820;2022-10-16T16:01:55;19.74;87.65
67722;SHT31;58309;45.292;11.820;2022-10-16T16:04:21;19.68;87.98
67722;SHT31;58309;45.292;11.820;2022-10-16T16:06:46;19.58;88.06
67722;SHT31;58309;45.292;11.820;2022-10-16T16:09:13;19.51;88.45
67722;SHT31;58309;45.292;11.820;2022-10-16T16:11:39;19.43;89.06
67722;SHT31;58309;45.292;11.820;2022-10-16T16:14:06;19.32;89.19
67722;SHT31;58309;45.292;11.820;2022-10-16T16:16:31;19.28;89.67
67722;SHT31;58309;45.292;11.820;2022-10-16T16:19:02;19.20;89.78
67722;SHT31;58309;45.292;11.820;2022-10-16T16:21:28;19.11;89.90
67722;SHT31;58309;45.292;11.820;2022-10-16T16:23:54;19.07;90.61
67722;SHT31;58309;45.292;11.820;2022-10-16T16:26:25;18.96;90.80
67722;SHT31;58309;45.292;11.820;2022-10-16T16:28:52;18.86;90.82
67722;SHT31;58309;45.292;11.820;2022-10-16T16:31:18;18.80;91.44
67722;SHT31;58309;45.292;11.820;2022-10-16T16:33:44;18.69;91.39
67722;SHT31;58309;45.292;11.820;2022-10-16T16:36:10;18.57;91.85
67722;SHT31;58309;45.292;11.820;2022-10-16T16:38:35;18.49;91.94
67722;SHT31;58309;45.292;11.820;2022-10-16T16:41:18;18.39;92.51
67722;SHT31;58309;45.292;11.820;2022-10-16T16:43:46;18.36;92.86
67722;SHT31;58309;45.292;11.820;2022-10-16T16:46:14;18.26;93.01
67722;SHT31;58309;45.292;11.820;2022-10-16T16:48:46;18.24;93.29
67722;SHT31;58309;45.292;11.820;2022-10-16T16:51:17;18.15;93.30
67722;SHT31;58309;45.292;11.820;2022-10-16T16:53:47;18.12;93.85
67722;SHT31;58309;45.292;11.820;2022-10-16T16:56:14;18.09;94.16
67722;SHT31;58309;45.292;11.820;2022-10-16T16:58:40;18.08;94.24
67722;SHT31;58309;45.292;11.820;2022-10-16T17:01:06;18.02;94.01
67722;SHT31;58309;45.292;11.820;2022-10-16T17:03:33;18.00;94.11
67722;SHT31;58309;45.292;11.820;2022-10-16T17:06:03;17.98;94.16
67722;SHT31;58309;45.292;11.820;2022-10-16T17:08:29;18.00;94.22
67722;SHT31;58309;45.292;11.820;2022-10-16T17:10:56;17.97;94.56
67722;SHT31;58309;45.292;11.820;2022-10-16T17:13:26;17.87;94.23
67722;SHT31;58309;45.292;11.820;2022-10-16T17:15:52;17.80;94.51
67722;SHT31;58309;45.292;11.820;2022-10-16T17:18:19;17.73;94.91
67722;SHT31;58309;45.292;11.820;2022-10-16T17:20:45;17.70;95.29